sensor_id;sensor_type;location;lat;lon;timestamp;P1;durP1;ratioP1;P2;durP2;ratioP2
54835;SDS011;43486;43.574;1.476;2023-03-14T00:00:29;7.30;;;1.52;;
54835;SDS011;43486;43.574;1.476;2023-03-14T00:02:54;2.60;;;1.05;;
54835;SDS011;43486;43.574;1.476;2023-03-14T00:05:20;6.53;;;2.10;;
54835;SDS011;43486;43.574;1.476;2023-03-14T00:07:45;4.65;;;1.98;;
54835;SDS011;43486;43.574;1.476;2023-03-14T00:10:11;2.30;;;1.55;;
54835;SDS011;43486;43.574;1.476;2023-03-14T00:12:38;4.55;;;1.55;;
54835;SDS011;43486;43.574;1.476;2023-03-14T00:15:04;3.83;;;1.80;;
54835;SDS011;43486;43.574;1.476;2023-03-14T00:17:32;3.65;;;1.77;;
54835;SDS011;43486;43.574;1.476;2023-03-14T00:19:57;5.60;;;2.42;;
54835;SDS011;43486;43.574;1.476;2023-03-14T00:22:29;6.82;;;1.55;;
54835;SDS011;43486;43.574;1.476;2023-03-14T00:24:55;4.50;;;2.15;;
54835;SDS011;43486;43.574;1.476;2023-03-14T00:27:20;2.08;;;1.27;;
54835;SDS011;43486;43.574;1.476;2023-03-14T00:29:45;5.20;;;1.55;;
54835;SDS011;43486;43.574;1.476;2023-03-14T00:32:11;7.72;;;1.95;;
54835;SDS011;43486;43.574;1.476;2023-03-14T00:34:36;3.03;;;1.40;;
54835;SDS011;43486;43.574;1.476;2023-03-14T00:37:02;3.72;;;1.17;;
54835;SDS011;43486;43.574;1.476;2023-03-14T00:39:27;4.68;;;1.50;;
54835;SDS011;43486;43.574;1.476;2023-03-14T00:41:53;3.22;;;1.45;;
54835;SDS011;43486;43.574;1.476;2023-03-14T00:44:18;9.02;;;1.65;;
54835;SDS011;43486;43.574;1.476;2023-03-14T00:46:43;4.20;;;1.75;;
54835;SDS011;43486;43.574;1.476;2023-03-14T00:49:09;6.03;;;1.92;;
54835;SDS011;43486;43.574;1.476;2023-03-14T00:51:34;4.13;;;2.15;;
54835;SDS011;43486;43.574;1.476;2023-03-14T00:54:00;5.07;;;1.83;;
54835;SDS011;43486;43.574;1.476;2023-03-14T00:56:25;3.88;;;1.38;;
54835;SDS011;43486;43.574;1.476;2023-03-14T00:58:54;7.43;;;2.90;;
54835;SDS011;43486;43.574;1.476;2023-03-14T01:01:21;3.65;;;1.95;;
54835;SDS011;43486;43.574;1.476;2023-03-14T01:03:46;5.72;;;1.70;;
54835;SDS011;43486;43.574;1.476;2023-03-14T01:06:13;2.67;;;1.40;;
54835;SDS011;43486;43.574;1.476;2023-03-14T01:08:40;3.83;;;1.25;;
54835;SDS011;43486;43.574;1.476;2023-03-14T01:11:07;7.05;;;2.17;;
54835;SDS011;43486;43.574;1.476;2023-03-14T01:13:33;2.08;;;1.25;;
54835;SDS011;43486;43.574;1.476;2023-03-14T01:16:03;4.00;;;1.48;;
54835;SDS011;43486;43.574;1.476;2023-03-14T01:18:30;4.80;;;1.67;;
54835;SDS011;43486;43.574;1.476;2023-03-14T01:20:56;8.38;;;1.77;;
54835;SDS011;43486;43.574;1.476;2023-03-14T01:23:22;3.08;;;1.48;;
54835;SDS011;43486;43.574;1.476;2023-03-14T01:25:47;8.15;;;1.73;;
54835;SDS011;43486;43.574;1.476;2023-03-14T01:28:13;4.90;;;1.48;;
54835;SDS011;43486;43.574;1.476;2023-03-14T01:30:38;5.22;;;1.40;;
54835;SDS011;43486;43.574;1.476;2023-03-14T01:33:04;3.30;;;1.30;;
54835;SDS011;43486;43.574;1.476;2023-03-14T01:35:29;6.72;;;1.60;;
54835;SDS011;43486;43.574;1.476;2023-03-14T01:37:54;3.78;;;1.45;;
54835;SDS011;43486;43.574;1.476;2023-03-14T01:40:20;6.70;;;1.30;;
54835;SDS011;43486;43.574;1.476;2023-03-14T01:42:46;3.58;;;1.45;;
54835;SDS011;43486;43.574;1.476;2023-03-14T01:54:10;10.38;;;1.77;;
54835;SDS011;43486;43.574;1.476;2023-03-14T01:56:40;2.80;;;1.17;;
54835;SDS011;43486;43.574;1.476;2023-03-14T01:59:07;4.18;;;1.48;;
54835;SDS011;43486;43.574;1.476;2023-03-14T02:01:33;3.78;;;2.00;;
54835;SDS011;43486;43.574;1.476;2023-03-14T02:04:00;8.75;;;1.95;;
54835;SDS011;43486;43.574;1.476;2023-03-14T02:06:29;5.03;;;1.48;;
54835;SDS011;43486;43.574;1.476;2023-03-14T02:08:58;9.68;;;2.08;;
54835;SDS011;43486;43.574;1.476;2023-03-14T02:11:26;5.70;;;2.30;;
54835;SDS011;43486;43.574;1.476;2023-03-14T02:13:54;7.22;;;2.38;;
54835;SDS011;43486;43.574;1.476;2023-03-14T02:16:21;7.20;;;1.83;;
54835;SDS011;43486;43.574;1.476;2023-03-14T02:18:46;9.73;;;2.10;;
54835;SDS011;43486;43.574;1.476;2023-03-14T02:21:59;6.78;;;1.88;;
54835;SDS011;43486;43.574;1.476;2023-03-14T02:27:00;7.20;;;1.98;;
54835;SDS011;43486;43.574;1.476;2023-03-14T02:29:26;5.22;;;1.55;;
54835;SDS011;43486;43.574;1.476;2023-03-14T02:31:52;6.18;;;2.08;;
54835;SDS011;43486;43.574;1.476;2023-03-14T02:34:17;3.10;;;1.80;;
54835;SDS011;43486;43.574;1.476;2023-03-14T02:36:43;4.50;;;2.15;;
54835;SDS011;43486;43.574;1.476;2023-03-14T02:39:13;5.13;;;1.95;;
54835;SDS011;43486;43.574;1.476;2023-03-14T02:41:41;6.68;;;2.00;;
54835;SDS011;43486;43.574;1.476;2023-03-14T02:44:07;5.22;;;2.05;;
54835;SDS011;43486;43.574;1.476;2023-03-14T02:46:33;4.93;;;2.33;;
54835;SDS011;43486;43.574;1.476;2023-03-14T02:49:02;4.05;;;1.63;;
54835;SDS011;43486;43.574;1.476;2023-03-14T02:51:29;12.27;;;2.10;;
54835;SDS011;43486;43.574;1.476;2023-03-14T02:53:55;4.53;;;2.15;;
54835;SDS011;43486;43.574;1.476;2023-03-14T02:56:20;8.82;;;2.47;;
54835;SDS011;43486;43.574;1.476;2023-03-14T02:58:45;5.53;;;2.05;;
54835;SDS011;43486;43.574;1.476;2023-03-14T03:01:11;7.53;;;1.92;;
54835;SDS011;43486;43.574;1.476;2023-03-14T03:03:36;4.45;;;1.65;;
54835;SDS011;43486;43.574;1.476;2023-03-14T03:06:02;5.25;;;1.88;;
54835;SDS011;43486;43.574;1.476;2023-03-14T03:08:28;6.18;;;2.17;;
54835;SDS011;43486;43.574;1.476;2023-03-14T03:10:53;3.72;;;1.45;;
54835;SDS011;43486;43.574;1.476;2023-03-14T03:13:19;4.75;;;1.85;;
54835;SDS011;43486;43.574;1.476;2023-03-14T03:15:45;11.95;;;2.42;;
54835;SDS011;43486;43.574;1.476;2023-03-14T03:18:11;7.50;;;3.22;;
54835;SDS011;43486;43.574;1.476;2023-03-14T03:20:36;5.63;;;2.08;;
54835;SDS011;43486;43.574;1.476;2023-03-14T03:23:02;4.70;;;1.45;;
54835;SDS011;43486;43.574;1.476;2023-03-14T03:25:27;3.88;;;1.73;;
54835;SDS011;43486;43.574;1.476;2023-03-14T03:27:53;7.03;;;2.30;;
54835;SDS011;43486;43.574;1.476;2023-03-14T03:30:19;6.78;;;2.65;;
54835;SDS011;43486;43.574;1.476;2023-03-14T03:32:44;7.85;;;2.30;;
54835;SDS011;43486;43.574;1.476;2023-03-14T03:35:10;6.07;;;2.55;;
54835;SDS011;43486;43.574;1.476;2023-03-14T03:37:35;9.20;;;2.15;;
54835;SDS011;43486;43.574;1.476;2023-03-14T03:40:01;4.35;;;1.75;;
54835;SDS011;43486;43.574;1.476;2023-03-14T03:42:30;6.05;;;2.58;;
54835;SDS011;43486;43.574;1.476;2023-03-14T03:44:56;5.13;;;1.73;;
54835;SDS011;43486;43.574;1.476;2023-03-14T03:47:21;7.80;;;2.65;;
54835;SDS011;43486;43.574;1.476;2023-03-14T03:49:46;2.38;;;1.42;;
54835;SDS011;43486;43.574;1.476;2023-03-14T03:52:12;4.13;;;2.17;;
54835;SDS011;43486;43.574;1.476;2023-03-14T03:54:37;4.20;;;2.00;;
54835;SDS011;43486;43.574;1.476;2023-03-14T03:57:02;9.43;;;1.88;;
54835;SDS011;43486;43.574;1.476;2023-03-14T03:59:28;6.80;;;3.40;;
54835;SDS011;43486;43.574;1.476;2023-03-14T04:01:53;2.97;;;1.45;;
54835;SDS011;43486;43.574;1.476;2023-03-14T04:04:19;10.10;;;2.83;;
54835;SDS011;43486;43.574;1.476;2023-03-14T04:06:44;9.13;;;2.25;;
54835;SDS011;43486;43.574;1.476;2023-03-14T04:09:10;7.32;;;2.20;;
54835;SDS011;43486;43.574;1.476;2023-03-14T04:11:36;7.30;;;2.40;;
54835;SDS011;43486;43.574;1.476;2023-03-14T04:14:02;9.77;;;2.70;;
54835;SDS011;43486;43.574;1.476;2023-03-14T04:16:28;8.32;;;2.55;;
54835;SDS011;43486;43.574;1.476;2023-03-14T04:18:54;6.30;;;2.00;;
54835;SDS011;43486;43.574;1.476;2023-03-14T04:21:19;3.97;;;1.35;;
54835;SDS011;43486;43.574;1.476;2023-03-14T04:23:45;7.15;;;2.65;;
54835;SDS011;43486;43.574;1.476;2023-03-14T04:26:10;5.93;;;1.95;;
54835;SDS011;43486;43.574;1.476;2023-03-14T04:28:35;9.13;;;2.45;;
54835;SDS011;43486;43.574;1.476;2023-03-14T04:31:08;7.15;;;1.73;;
54835;SDS011;43486;43.574;1.476;2023-03-14T04:33:34;6.82;;;2.55;;
54835;SDS011;43486;43.574;1.476;2023-03-14T04:36:01;7.18;;;2.85;;
54835;SDS011;43486;43.574;1.476;2023-03-14T04:38:26;8.70;;;2.40;;
54835;SDS011;43486;43.574;1.476;2023-03-14T04:40:51;5.00;;;2.17;;
54835;SDS011;43486;43.574;1.476;2023-03-14T04:43:17;4.80;;;1.85;;
54835;SDS011;43486;43.574;1.476;2023-03-14T04:45:42;7.53;;;2.80;;
54835;SDS011;43486;43.574;1.476;2023-03-14T04:48:08;3.72;;;1.58;;
54835;SDS011;43486;43.574;1.476;2023-03-14T04:50:34;5.68;;;2.30;;
54835;SDS011;43486;43.574;1.476;2023-03-14T04:52:59;14.13;;;3.22;;
54835;SDS011;43486;43.574;1.476;2023-03-14T04:55:24;5.75;;;2.15;;
54835;SDS011;43486;43.574;1.476;2023-03-14T04:57:50;6.88;;;2.75;;
54835;SDS011;43486;43.574;1.476;2023-03-14T05:00:15;5.18;;;1.67;;
54835;SDS011;43486;43.574;1.476;2023-03-14T05:02:43;5.68;;;2.05;;
54835;SDS011;43486;43.574;1.476;2023-03-14T05:05:09;7.40;;;2.72;;
54835;SDS011;43486;43.574;1.476;2023-03-14T05:07:34;8.25;;;2.42;;
54835;SDS011;43486;43.574;1.476;2023-03-14T05:09:59;11.63;;;2.60;;
54835;SDS011;43486;43.574;1.476;2023-03-14T05:12:25;8.13;;;2.30;;
54835;SDS011;43486;43.574;1.476;2023-03-14T05:14:50;7.05;;;2.53;;
54835;SDS011;43486;43.574;1.476;2023-03-14T05:17:15;5.85;;;2.25;;
54835;SDS011;43486;43.574;1.476;2023-03-14T05:19:41;6.38;;;1.88;;
54835;SDS011;43486;43.574;1.476;2023-03-14T05:22:07;6.40;;;2.25;;
54835;SDS011;43486;43.574;1.476;2023-03-14T05:24:32;5.50;;;2.33;;
54835;SDS011;43486;43.574;1.476;2023-03-14T05:26:57;4.07;;;2.08;;
54835;SDS011;43486;43.574;1.476;2023-03-14T05:29:23;17.00;;;3.38;;
54835;SDS011;43486;43.574;1.476;2023-03-14T05:31:48;4.55;;;2.00;;
54835;SDS011;43486;43.574;1.476;2023-03-14T05:34:14;5.82;;;2.00;;
54835;SDS011;43486;43.574;1.476;2023-03-14T05:36:39;6.28;;;2.45;;
54835;SDS011;43486;43.574;1.476;2023-03-14T05:39:04;11.25;;;2.55;;
54835;SDS011;43486;43.574;1.476;2023-03-14T05:41:30;9.38;;;2.78;;
54835;SDS011;43486;43.574;1.476;2023-03-14T05:43:55;10.45;;;2.20;;
54835;SDS011;43486;43.574;1.476;2023-03-14T05:46:20;10.05;;;1.95;;
54835;SDS011;43486;43.574;1.476;2023-03-14T05:48:46;7.93;;;2.10;;
54835;SDS011;43486;43.574;1.476;2023-03-14T05:51:11;10.50;;;1.83;;
54835;SDS011;43486;43.574;1.476;2023-03-14T05:53:37;10.25;;;2.60;;
54835;SDS011;43486;43.574;1.476;2023-03-14T05:56:02;8.98;;;2.63;;
54835;SDS011;43486;43.574;1.476;2023-03-14T05:58:28;8.10;;;3.08;;
54835;SDS011;43486;43.574;1.476;2023-03-14T06:00:53;6.70;;;2.65;;
54835;SDS011;43486;43.574;1.476;2023-03-14T06:03:18;9.00;;;2.88;;
54835;SDS011;43486;43.574;1.476;2023-03-14T06:05:44;5.57;;;2.40;;
54835;SDS011;43486;43.574;1.476;2023-03-14T06:08:09;10.55;;;2.25;;
54835;SDS011;43486;43.574;1.476;2023-03-14T06:10:35;4.38;;;2.17;;
54835;SDS011;43486;43.574;1.476;2023-03-14T06:13:01;7.15;;;2.50;;
54835;SDS011;43486;43.574;1.476;2023-03-14T06:15:27;5.35;;;2.17;;
54835;SDS011;43486;43.574;1.476;2023-03-14T06:17:56;6.85;;;2.10;;
54835;SDS011;43486;43.574;1.476;2023-03-14T06:20:21;9.75;;;2.53;;
54835;SDS011;43486;43.574;1.476;2023-03-14T06:22:47;6.20;;;2.63;;
54835;SDS011;43486;43.574;1.476;2023-03-14T06:25:12;8.45;;;3.15;;
54835;SDS011;43486;43.574;1.476;2023-03-14T06:27:38;10.10;;;2.55;;
54835;SDS011;43486;43.574;1.476;2023-03-14T06:30:04;9.57;;;2.92;;
54835;SDS011;43486;43.574;1.476;2023-03-14T06:32:29;6.75;;;1.95;;
54835;SDS011;43486;43.574;1.476;2023-03-14T06:34:55;4.68;;;1.75;;
54835;SDS011;43486;43.574;1.476;2023-03-14T06:37:22;10.10;;;3.42;;
54835;SDS011;43486;43.574;1.476;2023-03-14T06:39:47;7.93;;;2.17;;
54835;SDS011;43486;43.574;1.476;2023-03-14T06:42:12;5.15;;;2.50;;
54835;SDS011;43486;43.574;1.476;2023-03-14T06:44:38;5.53;;;1.67;;
54835;SDS011;43486;43.574;1.476;2023-03-14T06:47:03;5.63;;;2.78;;
54835;SDS011;43486;43.574;1.476;2023-03-14T06:49:29;7.28;;;2.17;;
54835;SDS011;43486;43.574;1.476;2023-03-14T06:51:54;12.60;;;2.35;;
54835;SDS011;43486;43.574;1.476;2023-03-14T06:54:19;12.90;;;3.33;;
54835;SDS011;43486;43.574;1.476;2023-03-14T06:56:45;4.63;;;2.10;;
54835;SDS011;43486;43.574;1.476;2023-03-14T06:59:10;9.65;;;3.47;;
54835;SDS011;43486;43.574;1.476;2023-03-14T07:01:36;12.18;;;3.33;;
54835;SDS011;43486;43.574;1.476;2023-03-14T07:04:02;8.15;;;3.08;;
54835;SDS011;43486;43.574;1.476;2023-03-14T07:06:27;4.72;;;1.80;;
54835;SDS011;43486;43.574;1.476;2023-03-14T07:08:54;12.15;;;3.15;;
54835;SDS011;43486;43.574;1.476;2023-03-14T07:11:20;6.25;;;3.10;;
54835;SDS011;43486;43.574;1.476;2023-03-14T07:13:46;6.75;;;2.55;;
54835;SDS011;43486;43.574;1.476;2023-03-14T07:16:11;7.78;;;2.85;;
54835;SDS011;43486;43.574;1.476;2023-03-14T07:18:37;7.45;;;2.25;;
54835;SDS011;43486;43.574;1.476;2023-03-14T07:21:02;12.60;;;3.80;;
54835;SDS011;43486;43.574;1.476;2023-03-14T07:23:28;11.45;;;2.90;;
54835;SDS011;43486;43.574;1.476;2023-03-14T07:25:54;6.95;;;2.65;;
54835;SDS011;43486;43.574;1.476;2023-03-14T07:28:20;10.13;;;3.40;;
54835;SDS011;43486;43.574;1.476;2023-03-14T07:30:46;7.07;;;3.05;;
54835;SDS011;43486;43.574;1.476;2023-03-14T07:33:12;7.63;;;3.50;;
54835;SDS011;43486;43.574;1.476;2023-03-14T07:35:37;5.60;;;2.33;;
54835;SDS011;43486;43.574;1.476;2023-03-14T07:38:02;8.75;;;2.50;;
54835;SDS011;43486;43.574;1.476;2023-03-14T07:40:29;14.35;;;3.03;;
54835;SDS011;43486;43.574;1.476;2023-03-14T07:42:54;8.05;;;3.85;;
54835;SDS011;43486;43.574;1.476;2023-03-14T07:45:20;10.95;;;3.20;;
54835;SDS011;43486;43.574;1.476;2023-03-14T07:47:45;13.98;;;3.40;;
54835;SDS011;43486;43.574;1.476;2023-03-14T07:50:11;8.63;;;3.03;;
54835;SDS011;43486;43.574;1.476;2023-03-14T07:52:36;7.28;;;2.20;;
54835;SDS011;43486;43.574;1.476;2023-03-14T07:55:01;13.15;;;3.50;;
54835;SDS011;43486;43.574;1.476;2023-03-14T07:57:27;7.30;;;2.80;;
54835;SDS011;43486;43.574;1.476;2023-03-14T07:59:52;6.45;;;3.03;;
54835;SDS011;43486;43.574;1.476;2023-03-14T08:02:18;10.60;;;2.70;;
54835;SDS011;43486;43.574;1.476;2023-03-14T08:04:47;12.07;;;3.63;;
54835;SDS011;43486;43.574;1.476;2023-03-14T08:07:12;10.00;;;3.05;;
54835;SDS011;43486;43.574;1.476;2023-03-14T08:09:37;12.48;;;3.38;;
54835;SDS011;43486;43.574;1.476;2023-03-14T08:12:03;16.00;;;2.95;;
54835;SDS011;43486;43.574;1.476;2023-03-14T08:14:28;13.63;;;2.67;;
54835;SDS011;43486;43.574;1.476;2023-03-14T08:16:55;10.18;;;3.78;;
54835;SDS011;43486;43.574;1.476;2023-03-14T08:19:20;7.10;;;2.78;;
54835;SDS011;43486;43.574;1.476;2023-03-14T08:21:46;8.70;;;2.65;;
54835;SDS011;43486;43.574;1.476;2023-03-14T08:24:11;5.70;;;3.25;;
54835;SDS011;43486;43.574;1.476;2023-03-14T08:26:36;7.13;;;2.53;;
54835;SDS011;43486;43.574;1.476;2023-03-14T08:29:02;5.45;;;2.70;;
54835;SDS011;43486;43.574;1.476;2023-03-14T08:31:29;8.82;;;3.22;;
54835;SDS011;43486;43.574;1.476;2023-03-14T08:33:55;6.35;;;3.00;;
54835;SDS011;43486;43.574;1.476;2023-03-14T08:36:22;15.90;;;3.20;;
54835;SDS011;43486;43.574;1.476;2023-03-14T08:38:48;5.93;;;2.20;;
54835;SDS011;43486;43.574;1.476;2023-03-14T08:41:13;11.05;;;3.85;;
54835;SDS011;43486;43.574;1.476;2023-03-14T08:43:39;12.93;;;3.33;;
54835;SDS011;43486;43.574;1.476;2023-03-14T08:46:04;8.25;;;3.10;;
54835;SDS011;43486;43.574;1.476;2023-03-14T08:48:30;11.02;;;3.47;;
54835;SDS011;43486;43.574;1.476;2023-03-14T08:51:05;7.68;;;2.38;;
54835;SDS011;43486;43.574;1.476;2023-03-14T08:53:32;10.55;;;3.15;;
54835;SDS011;43486;43.574;1.476;2023-03-14T08:55:57;10.52;;;3.75;;
54835;SDS011;43486;43.574;1.476;2023-03-14T08:58:23;14.75;;;4.35;;
54835;SDS011;43486;43.574;1.476;2023-03-14T09:00:48;9.60;;;2.60;;
54835;SDS011;43486;43.574;1.476;2023-03-14T09:03:14;6.50;;;2.92;;
54835;SDS011;43486;43.574;1.476;2023-03-14T09:05:39;8.43;;;2.90;;
54835;SDS011;43486;43.574;1.476;2023-03-14T09:08:05;7.07;;;2.70;;
54835;SDS011;43486;43.574;1.476;2023-03-14T09:10:30;17.10;;;4.03;;
54835;SDS011;43486;43.574;1.476;2023-03-14T09:12:56;11.18;;;3.50;;
54835;SDS011;43486;43.574;1.476;2023-03-14T09:15:23;6.78;;;2.45;;
54835;SDS011;43486;43.574;1.476;2023-03-14T09:17:48;7.28;;;3.13;;
54835;SDS011;43486;43.574;1.476;2023-03-14T09:20:14;13.95;;;4.57;;
54835;SDS011;43486;43.574;1.476;2023-03-14T09:22:39;8.95;;;3.38;;
54835;SDS011;43486;43.574;1.476;2023-03-14T09:25:05;10.05;;;2.80;;
54835;SDS011;43486;43.574;1.476;2023-03-14T09:27:31;10.45;;;3.83;;
54835;SDS011;43486;43.574;1.476;2023-03-14T09:29:56;11.80;;;3.80;;
54835;SDS011;43486;43.574;1.476;2023-03-14T09:32:21;9.50;;;2.88;;
54835;SDS011;43486;43.574;1.476;2023-03-14T09:34:47;8.65;;;2.72;;
54835;SDS011;43486;43.574;1.476;2023-03-14T09:37:12;15.70;;;3.40;;
54835;SDS011;43486;43.574;1.476;2023-03-14T09:39:38;10.95;;;3.58;;
54835;SDS011;43486;43.574;1.476;2023-03-14T09:42:04;6.78;;;2.67;;
54835;SDS011;43486;43.574;1.476;2023-03-14T09:44:32;12.30;;;3.63;;
54835;SDS011;43486;43.574;1.476;2023-03-14T09:47:00;7.63;;;3.05;;
54835;SDS011;43486;43.574;1.476;2023-03-14T09:49:29;7.43;;;2.70;;
54835;SDS011;43486;43.574;1.476;2023-03-14T09:51:56;14.70;;;3.67;;
54835;SDS011;43486;43.574;1.476;2023-03-14T09:54:31;5.35;;;2.22;;
54835;SDS011;43486;43.574;1.476;2023-03-14T09:57:13;8.40;;;2.70;;
54835;SDS011;43486;43.574;1.476;2023-03-14T09:59:41;19.73;;;3.70;;
54835;SDS011;43486;43.574;1.476;2023-03-14T10:02:14;14.75;;;3.95;;
54835;SDS011;43486;43.574;1.476;2023-03-14T10:04:44;9.48;;;2.95;;
54835;SDS011;43486;43.574;1.476;2023-03-14T10:07:12;12.73;;;2.20;;
54835;SDS011;43486;43.574;1.476;2023-03-14T10:09:48;12.02;;;3.50;;
54835;SDS011;43486;43.574;1.476;2023-03-14T10:12:15;11.35;;;3.55;;
54835;SDS011;43486;43.574;1.476;2023-03-14T10:14:45;7.97;;;2.42;;
54835;SDS011;43486;43.574;1.476;2023-03-14T10:17:13;5.50;;;2.25;;
54835;SDS011;43486;43.574;1.476;2023-03-14T10:19:55;10.85;;;2.67;;
54835;SDS011;43486;43.574;1.476;2023-03-14T10:22:23;11.77;;;3.47;;
54835;SDS011;43486;43.574;1.476;2023-03-14T10:24:54;6.18;;;2.28;;
54835;SDS011;43486;43.574;1.476;2023-03-14T10:27:29;11.63;;;3.17;;
54835;SDS011;43486;43.574;1.476;2023-03-14T10:29:58;10.95;;;3.20;;
54835;SDS011;43486;43.574;1.476;2023-03-14T10:32:29;8.70;;;3.42;;
54835;SDS011;43486;43.574;1.476;2023-03-14T10:35:08;6.38;;;2.63;;
54835;SDS011;43486;43.574;1.476;2023-03-14T10:40:16;9.25;;;2.83;;
54835;SDS011;43486;43.574;1.476;2023-03-14T10:42:43;5.13;;;2.00;;
54835;SDS011;43486;43.574;1.476;2023-03-14T10:50:47;7.57;;;2.85;;
54835;SDS011;43486;43.574;1.476;2023-03-14T10:53:16;6.88;;;2.53;;
54835;SDS011;43486;43.574;1.476;2023-03-14T10:55:42;7.95;;;3.22;;
54835;SDS011;43486;43.574;1.476;2023-03-14T10:58:28;7.72;;;3.00;;
54835;SDS011;43486;43.574;1.476;2023-03-14T11:01:00;8.05;;;2.30;;
54835;SDS011;43486;43.574;1.476;2023-03-14T11:03:31;3.92;;;1.88;;
54835;SDS011;43486;43.574;1.476;2023-03-14T11:09:17;5.88;;;2.28;;
54835;SDS011;43486;43.574;1.476;2023-03-14T11:11:46;6.65;;;2.70;;
54835;SDS011;43486;43.574;1.476;2023-03-14T11:20:04;10.20;;;2.28;;
54835;SDS011;43486;43.574;1.476;2023-03-14T11:25:21;5.35;;;2.22;;
54835;SDS011;43486;43.574;1.476;2023-03-14T11:27:50;8.82;;;3.15;;
54835;SDS011;43486;43.574;1.476;2023-03-14T11:35:45;5.97;;;2.42;;
54835;SDS011;43486;43.574;1.476;2023-03-14T11:41:11;8.50;;;2.28;;
54835;SDS011;43486;43.574;1.476;2023-03-14T11:43:40;7.93;;;2.55;;
54835;SDS011;43486;43.574;1.476;2023-03-14T11:46:13;8.15;;;2.42;;
54835;SDS011;43486;43.574;1.476;2023-03-14T11:48:43;5.35;;;2.10;;
54835;SDS011;43486;43.574;1.476;2023-03-14T11:52:27;7.00;;;2.10;;
54835;SDS011;43486;43.574;1.476;2023-03-14T11:54:53;4.05;;;1.88;;
54835;SDS011;43486;43.574;1.476;2023-03-14T11:57:21;6.97;;;2.47;;
54835;SDS011;43486;43.574;1.476;2023-03-14T12:02:24;7.65;;;2.60;;
54835;SDS011;43486;43.574;1.476;2023-03-14T12:08:30;4.30;;;1.95;;
54835;SDS011;43486;43.574;1.476;2023-03-14T12:10:43;5.18;;;1.83;;
54835;SDS011;43486;43.574;1.476;2023-03-14T12:13:13;4.97;;;1.75;;
54835;SDS011;43486;43.574;1.476;2023-03-14T12:15:50;5.90;;;2.42;;
54835;SDS011;43486;43.574;1.476;2023-03-14T12:18:28;5.32;;;1.85;;
54835;SDS011;43486;43.574;1.476;2023-03-14T12:20:58;6.55;;;2.40;;
54835;SDS011;43486;43.574;1.476;2023-03-14T12:23:25;6.40;;;1.95;;
54835;SDS011;43486;43.574;1.476;2023-03-14T12:29:09;5.57;;;1.70;;
54835;SDS011;43486;43.574;1.476;2023-03-14T12:42:38;10.57;;;2.28;;
54835;SDS011;43486;43.574;1.476;2023-03-14T12:47:53;6.80;;;2.08;;
54835;SDS011;43486;43.574;1.476;2023-03-14T12:58:39;6.32;;;1.58;;
54835;SDS011;43486;43.574;1.476;2023-03-14T13:01:16;4.95;;;2.22;;
54835;SDS011;43486;43.574;1.476;2023-03-14T13:03:45;2.47;;;1.35;;
54835;SDS011;43486;43.574;1.476;2023-03-14T13:06:12;3.13;;;1.58;;
54835;SDS011;43486;43.574;1.476;2023-03-14T13:08:41;5.63;;;1.95;;
54835;SDS011;43486;43.574;1.476;2023-03-14T13:11:20;7.88;;;2.30;;
54835;SDS011;43486;43.574;1.476;2023-03-14T13:13:49;7.70;;;1.70;;
54835;SDS011;43486;43.574;1.476;2023-03-14T13:16:20;3.65;;;2.05;;
54835;SDS011;43486;43.574;1.476;2023-03-14T13:18:50;5.90;;;1.65;;
54835;SDS011;43486;43.574;1.476;2023-03-14T13:21:24;4.45;;;1.85;;
54835;SDS011;43486;43.574;1.476;2023-03-14T13:26:21;4.00;;;2.20;;
54835;SDS011;43486;43.574;1.476;2023-03-14T13:28:47;5.70;;;1.85;;
54835;SDS011;43486;43.574;1.476;2023-03-14T13:31:18;3.45;;;1.30;;
54835;SDS011;43486;43.574;1.476;2023-03-14T13:34:02;4.50;;;2.00;;
54835;SDS011;43486;43.574;1.476;2023-03-14T13:36:31;2.88;;;1.42;;
54835;SDS011;43486;43.574;1.476;2023-03-14T13:39:00;2.53;;;1.30;;
54835;SDS011;43486;43.574;1.476;2023-03-14T13:41:27;2.47;;;1.27;;
54835;SDS011;43486;43.574;1.476;2023-03-14T13:43:57;3.63;;;1.20;;
54835;SDS011;43486;43.574;1.476;2023-03-14T13:46:28;2.40;;;1.08;;
54835;SDS011;43486;43.574;1.476;2023-03-14T13:48:55;3.13;;;1.48;;
54835;SDS011;43486;43.574;1.476;2023-03-14T13:51:22;5.10;;;1.40;;
54835;SDS011;43486;43.574;1.476;2023-03-14T13:56:15;2.83;;;1.33;;
54835;SDS011;43486;43.574;1.476;2023-03-14T13:58:41;4.45;;;1.92;;
54835;SDS011;43486;43.574;1.476;2023-03-14T14:01:22;2.58;;;1.33;;
54835;SDS011;43486;43.574;1.476;2023-03-14T14:03:50;4.75;;;2.50;;
54835;SDS011;43486;43.574;1.476;2023-03-14T14:06:27;2.63;;;0.90;;
54835;SDS011;43486;43.574;1.476;2023-03-14T14:14:01;2.05;;;1.17;;
54835;SDS011;43486;43.574;1.476;2023-03-14T14:16:27;4.15;;;1.85;;
54835;SDS011;43486;43.574;1.476;2023-03-14T14:18:53;2.67;;;1.02;;
54835;SDS011;43486;43.574;1.476;2023-03-14T14:21:19;4.63;;;1.42;;
54835;SDS011;43486;43.574;1.476;2023-03-14T14:23:44;2.67;;;1.00;;
54835;SDS011;43486;43.574;1.476;2023-03-14T14:26:13;8.38;;;1.63;;
54835;SDS011;43486;43.574;1.476;2023-03-14T14:28:42;3.30;;;1.35;;
54835;SDS011;43486;43.574;1.476;2023-03-14T14:33:40;2.65;;;1.23;;
54835;SDS011;43486;43.574;1.476;2023-03-14T14:36:40;7.18;;;2.08;;
54835;SDS011;43486;43.574;1.476;2023-03-14T14:41:43;2.17;;;1.27;;
54835;SDS011;43486;43.574;1.476;2023-03-14T14:44:11;3.67;;;1.33;;
54835;SDS011;43486;43.574;1.476;2023-03-14T14:46:38;5.80;;;1.30;;
54835;SDS011;43486;43.574;1.476;2023-03-14T14:49:06;2.38;;;1.30;;
54835;SDS011;43486;43.574;1.476;2023-03-14T14:51:39;2.50;;;1.05;;
54835;SDS011;43486;43.574;1.476;2023-03-14T14:54:11;2.22;;;1.15;;
54835;SDS011;43486;43.574;1.476;2023-03-14T14:56:38;4.88;;;1.98;;
54835;SDS011;43486;43.574;1.476;2023-03-14T14:59:05;3.20;;;1.20;;
54835;SDS011;43486;43.574;1.476;2023-03-14T15:01:33;5.72;;;1.45;;
54835;SDS011;43486;43.574;1.476;2023-03-14T15:04:00;4.40;;;1.30;;
54835;SDS011;43486;43.574;1.476;2023-03-14T15:06:27;4.88;;;1.92;;
54835;SDS011;43486;43.574;1.476;2023-03-14T15:08:54;2.42;;;1.15;;
54835;SDS011;43486;43.574;1.476;2023-03-14T15:11:20;3.25;;;1.25;;
54835;SDS011;43486;43.574;1.476;2023-03-14T15:13:47;2.25;;;1.10;;
54835;SDS011;43486;43.574;1.476;2023-03-14T15:16:15;6.43;;;1.50;;
54835;SDS011;43486;43.574;1.476;2023-03-14T15:18:43;2.67;;;1.30;;
54835;SDS011;43486;43.574;1.476;2023-03-14T15:21:11;5.47;;;1.65;;
54835;SDS011;43486;43.574;1.476;2023-03-14T15:23:37;2.55;;;1.48;;
54835;SDS011;43486;43.574;1.476;2023-03-14T15:26:02;3.30;;;1.13;;
54835;SDS011;43486;43.574;1.476;2023-03-14T15:28:34;2.28;;;1.00;;
54835;SDS011;43486;43.574;1.476;2023-03-14T15:31:00;2.20;;;1.20;;
54835;SDS011;43486;43.574;1.476;2023-03-14T15:33:25;1.95;;;1.20;;
54835;SDS011;43486;43.574;1.476;2023-03-14T15:35:51;3.33;;;1.33;;
54835;SDS011;43486;43.574;1.476;2023-03-14T15:38:18;2.97;;;1.27;;
54835;SDS011;43486;43.574;1.476;2023-03-14T15:40:46;2.58;;;1.15;;
54835;SDS011;43486;43.574;1.476;2023-03-14T15:43:11;1.95;;;1.25;;
54835;SDS011;43486;43.574;1.476;2023-03-14T15:45:37;5.20;;;1.85;;
54835;SDS011;43486;43.574;1.476;2023-03-14T15:48:02;2.15;;;1.00;;
54835;SDS011;43486;43.574;1.476;2023-03-14T15:50:28;3.17;;;1.30;;
54835;SDS011;43486;43.574;1.476;2023-03-14T15:52:53;2.83;;;1.40;;
54835;SDS011;43486;43.574;1.476;2023-03-14T15:55:20;4.82;;;1.77;;
54835;SDS011;43486;43.574;1.476;2023-03-14T15:57:46;2.47;;;0.80;;
54835;SDS011;43486;43.574;1.476;2023-03-14T16:00:13;1.58;;;1.20;;
54835;SDS011;43486;43.574;1.476;2023-03-14T16:02:40;3.67;;;1.45;;
54835;SDS011;43486;43.574;1.476;2023-03-14T16:05:09;10.43;;;2.17;;
54835;SDS011;43486;43.574;1.476;2023-03-14T16:07:35;1.65;;;0.93;;
54835;SDS011;43486;43.574;1.476;2023-03-14T16:10:01;1.35;;;0.90;;
54835;SDS011;43486;43.574;1.476;2023-03-14T16:12:26;2.50;;;1.20;;